Calverton, New York
Current Conditions -  °F | °C
As of 4:53 AM on Tuesday 21 Oct 2014 (Local Time) from KFOK Reporting Station
Clear Clear  
Wind Chill: 49°   Ceiling: Unl
Heat Index: 49°   Visibility: 10mi
Dew Point: 44°   Wind: 0mph
Humidity: 83%   Direction: NA
Pressure: 29.94"   Gusts: NA
Location:  40.92°N, 72.76°W
Report Text: KFOK 210853Z 00000KT 10SM CLR 09/07 A2994 RMK AO2 SLP136 T00940067 57014
Loading
Personal Weather Stations






























Interactive Weather Map
Tropical Storm Tracking
New forecast layout! Learn more

10-Day Weather Forecast

Advertisements
Track Severe Weather on mobile